Time;durP1;ratioP1;P1;durP2;ratioP2;P2;SDS_P1;SDS_P2;PMS_P1;PMS_P2;Temp;Humidity;BMP_temperature;BMP_pressure;BME280_temperature;BME280_humidity;BME280_pressure;Samples;Min_cycle;Max_cycle;Signal;HPM_P1;HPM_P2
2023/10/20 00:01:18;;;;;;;0.73;0.73;;;;;;;16.68;79.93;98617.75;5088207;28;20115;-84
2023/10/20 00:03:44;;;;;;;0.22;0.22;;;;;;;16.65;80.42;98614.34;5089247;28;20546;-84
2023/10/20 00:06:10;;;;;;;0.10;0.10;;;;;;;16.69;80.02;98614.94;5088191;28;20031;-85
2023/10/20 00:08:36;;;;;;;0.50;0.50;;;;;;;16.70;80.26;98613.97;5090990;28;20027;-84
2023/10/20 00:11:04;;;;;;;0.15;0.15;;;;;;;16.66;80.48;98607.19;5090781;28;20031;-84
2023/10/20 00:13:30;;;;;;;0.30;0.30;;;;;;;16.68;80.30;98605.22;5090296;28;20068;-84
2023/10/20 00:15:56;;;;;;;0.40;0.40;;;;;;;16.70;80.28;98603.28;5089422;28;20047;-84
2023/10/20 00:18:23;;;;;;;1.08;1.02;;;;;;;16.72;80.36;98600.47;5091412;28;20032;-83
2023/10/20 00:20:49;;;;;;;0.50;0.50;;;;;;;16.73;80.34;98608.34;5093413;28;20028;-84
2023/10/20 00:23:15;;;;;;;1.88;1.75;;;;;;;16.70;80.54;98592.59;5085120;28;20028;-84
2023/10/20 00:25:42;;;;;;;0.30;0.30;;;;;;;16.66;80.76;98594.66;5088164;28;20028;-84
2023/10/20 00:28:09;;;;;;;1.38;1.38;;;;;;;16.71;80.41;98591.63;5078166;28;20123;-84
2023/10/20 00:30:39;;;;;;;0.30;0.30;;;;;;;16.74;80.13;98591.34;5090402;28;20073;-84
2023/10/20 00:33:05;;;;;;;1.55;1.48;;;;;;;16.72;79.89;98590.59;5091134;28;20095;-84
2023/10/20 00:35:31;;;;;;;0.50;0.50;;;;;;;16.72;80.07;98595.13;5088855;28;20028;-83
2023/10/20 00:37:58;;;;;;;0.57;0.57;;;;;;;16.70;80.17;98591.72;5087012;28;20031;-84
2023/10/20 00:40:25;;;;;;;1.50;1.42;;;;;;;16.68;80.49;98583.81;5093762;28;20115;-83
2023/10/20 00:42:51;;;;;;;0.10;0.10;;;;;;;16.68;80.60;98573.13;5091773;28;20035;-83
2023/10/20 00:45:17;;;;;;;0.20;0.20;;;;;;;16.66;80.85;98569.75;5093030;28;20399;-84
2023/10/20 00:47:45;;;;;;;0.75;0.75;;;;;;;16.69;80.63;98569.50;5087113;28;20035;-83
2023/10/20 00:50:13;;;;;;;1.77;1.67;;;;;;;16.65;80.55;98568.03;5094062;28;20051;-83
2023/10/20 00:52:43;;;;;;;0.25;0.25;;;;;;;16.67;80.55;98568.75;5095498;28;20081;-83
2023/10/20 00:55:11;;;;;;;3.72;2.08;;;;;;;16.66;80.57;98557.22;5094632;28;20027;-84
2023/10/20 00:57:39;;;;;;;0.40;0.40;;;;;;;16.63;80.87;98545.94;5088424;28;20024;-84
2023/10/20 01:00:08;;;;;;;0.30;0.30;;;;;;;16.61;80.58;98538.03;5082977;28;20039;-84
2023/10/20 01:02:36;;;;;;;0.82;0.82;;;;;;;16.48;81.09;98530.16;5105099;28;20031;-82
2023/10/20 01:05:08;;;;;;;0.20;0.20;;;;;;;16.55;81.04;98529.66;5106814;28;20088;-83
2023/10/20 01:07:35;;;;;;;0.85;0.85;;;;;;;16.57;80.80;98520.53;5096704;28;20036;-83
2023/10/20 01:10:05;;;;;;;0.20;0.20;;;;;;;16.57;80.60;98523.19;5093625;28;20025;-83
2023/10/20 01:12:32;;;;;;;0.25;0.25;;;;;;;16.54;80.73;98518.13;5091151;28;20655;-83
2023/10/20 01:14:59;;;;;;;0.50;0.50;;;;;;;16.57;80.53;98533.06;5086354;28;20039;-83
2023/10/20 01:17:27;;;;;;;0.22;0.22;;;;;;;16.53;80.88;98528.94;5093209;28;20085;-82
2023/10/20 01:19:53;;;;;;;1.33;1.33;;;;;;;16.55;80.66;98522.50;5083460;28;20446;-84
2023/10/20 01:22:20;;;;;;;2.15;0.60;;;;;;;16.55;80.66;98526.97;5093840;28;20036;-84
2023/10/20 01:24:46;;;;;;;2.67;1.08;;;;;;;16.58;80.39;98516.06;5086828;28;20036;-83
2023/10/20 01:27:12;;;;;;;1.35;1.00;;;;;;;16.59;80.39;98520.44;5094740;28;20114;-84
2023/10/20 01:29:38;;;;;;;0.52;0.52;;;;;;;16.57;80.86;98500.97;5090409;28;20107;-83
2023/10/20 01:32:04;;;;;;;0.28;0.28;;;;;;;16.58;80.49;98497.34;5085875;28;20029;-84
2023/10/20 01:34:31;;;;;;;0.10;0.10;;;;;;;16.56;80.57;98493.94;5076717;28;20028;-84
2023/10/20 01:36:57;;;;;;;0.20;0.20;;;;;;;16.57;80.50;98490.28;5092069;28;20407;-83
2023/10/20 01:39:23;;;;;;;0.52;0.52;;;;;;;16.56;80.30;98483.25;5093346;28;20093;-82
2023/10/20 01:41:49;;;;;;;0.20;0.20;;;;;;;16.57;80.42;98474.25;5091859;28;20153;-82
2023/10/20 01:44:15;;;;;;;0.25;0.25;;;;;;;16.54;80.42;98470.00;5092124;28;20035;-83
2023/10/20 01:46:49;;;;;;;0.60;0.60;;;;;;;16.54;80.46;98463.81;5086872;28;20028;-82
2023/10/20 01:49:15;;;;;;;0.10;0.10;;;;;;;16.47;80.81;98448.28;5077374;28;20035;-82
2023/10/20 01:51:42;;;;;;;0.10;0.10;;;;;;;16.45;80.71;98452.91;5090864;28;20024;-82
2023/10/20 01:54:08;;;;;;;0.30;0.30;;;;;;;16.47;80.67;98458.13;5092128;28;20109;-83
2023/10/20 01:56:35;;;;;;;0.10;0.10;;;;;;;16.46;80.71;98461.75;5087513;28;20028;-83
2023/10/20 01:59:01;;;;;;;0.50;0.50;;;;;;;16.46;80.83;98456.41;5084643;28;20407;-83
2023/10/20 02:01:27;;;;;;;0.10;0.10;;;;;;;16.46;80.61;98451.06;5082265;28;20036;-83
2023/10/20 02:03:53;;;;;;;0.20;0.20;;;;;;;16.47;80.42;98453.66;5091872;28;20028;-83
2023/10/20 02:06:19;;;;;;;0.88;0.80;;;;;;;16.46;80.85;98441.25;5090210;28;20039;-83
2023/10/20 02:08:45;;;;;;;1.50;0.73;;;;;;;16.45;80.61;98433.38;5086476;28;20495;-82
2023/10/20 02:11:12;;;;;;;0.10;0.10;;;;;;;16.48;80.43;98425.06;5082253;28;20024;-83
2023/10/20 02:13:38;;;;;;;0.80;0.80;;;;;;;16.49;80.21;98411.59;5082874;28;20540;-82
2023/10/20 02:16:10;;;;;;;0.77;0.77;;;;;;;16.45;80.51;98402.13;5081590;28;20499;-83
2023/10/20 02:18:36;;;;;;;0.43;0.43;;;;;;;16.44;80.46;98399.59;5086614;28;20039;-82
2023/10/20 02:21:04;;;;;;;0.10;0.10;;;;;;;16.40;80.98;98393.66;5092463;28;20099;-83
2023/10/20 02:23:32;;;;;;;0.40;0.40;;;;;;;16.43;80.86;98385.38;5083546;28;20028;-82
2023/10/20 02:25:59;;;;;;;0.68;0.68;;;;;;;16.45;80.31;98380.75;5082378;28;20042;-83
2023/10/20 02:28:26;;;;;;;0.85;0.38;;;;;;;16.45;80.78;98380.75;5091191;28;20431;-83
2023/10/20 02:30:55;;;;;;;0.32;0.32;;;;;;;16.47;80.53;98367.25;5089537;28;20068;-83
2023/10/20 02:33:21;;;;;;;1.20;1.02;;;;;;;16.47;80.42;98362.78;5089851;28;20024;-83
2023/10/20 02:35:47;;;;;;;2.83;0.55;;;;;;;16.45;80.55;98364.72;5088373;28;20028;-83
2023/10/20 02:38:13;;;;;;;0.22;0.22;;;;;;;16.50;80.33;98372.34;5089402;28;20036;-83
2023/10/20 02:40:47;;;;;;;0.10;0.10;;;;;;;16.47;80.54;98357.44;5083796;28;20039;-82
2023/10/20 02:43:14;;;;;;;0.73;0.73;;;;;;;16.41;81.15;98365.97;5089357;28;20048;-82
2023/10/20 02:45:48;;;;;;;0.57;0.50;;;;;;;16.54;80.74;98356.91;5089617;28;20036;-84
2023/10/20 02:48:14;;;;;;;2.00;0.98;;;;;;;16.49;80.55;98343.94;5089389;28;20119;-82
2023/10/20 02:50:40;;;;;;;2.28;1.75;;;;;;;16.49;80.70;98339.41;5080483;28;20032;-83
2023/10/20 02:53:07;;;;;;;0.52;0.52;;;;;;;16.52;80.50;98342.81;5089962;28;20024;-83
2023/10/20 02:55:33;;;;;;;0.30;0.30;;;;;;;16.49;80.27;98339.41;5093246;28;20391;-84
2023/10/20 02:58:00;;;;;;;1.05;1.05;;;;;;;16.44;80.48;98338.97;5090672;28;20043;-83
2023/10/20 03:00:27;;;;;;;0.30;0.30;;;;;;;16.43;80.62;98334.59;5089165;28;20028;-83
2023/10/20 03:02:54;;;;;;;0.20;0.20;;;;;;;16.39;80.59;98332.31;5084263;28;20113;-84
2023/10/20 03:05:21;;;;;;;0.65;0.55;;;;;;;16.38;80.61;98328.78;5091969;28;20483;-82
2023/10/20 03:07:47;;;;;;;0.47;0.47;;;;;;;16.34;80.73;98336.22;5091528;28;20153;-82
2023/10/20 03:10:14;;;;;;;1.23;1.23;;;;;;;16.31;80.59;98330.28;5097330;28;20379;-83
2023/10/20 03:12:40;;;;;;;0.10;0.10;;;;;;;16.27;80.75;98323.50;5082177;28;20043;-82
2023/10/20 03:15:08;;;;;;;0.52;0.52;;;;;;;16.26;80.76;98313.78;5084615;28;20089;-83
2023/10/20 03:17:35;;;;;;;0.13;0.13;;;;;;;16.27;80.42;98307.47;5079793;28;20024;-83
2023/10/20 03:20:01;;;;;;;0.85;0.85;;;;;;;16.27;80.21;98299.47;5093283;28;20032;-83
2023/10/20 03:22:27;;;;;;;0.20;0.20;;;;;;;16.23;80.41;98303.38;5091319;28;20036;-83
2023/10/20 03:24:54;;;;;;;0.38;0.38;;;;;;;16.15;80.31;98294.19;5090583;28;20040;-83
2023/10/20 03:27:20;;;;;;;1.00;0.68;;;;;;;16.18;79.98;98293.91;5097186;28;20020;-84
2023/10/20 03:29:46;;;;;;;0.30;0.30;;;;;;;16.18;79.95;98287.72;5096292;28;20035;-83
2023/10/20 03:32:13;;;;;;;0.52;0.52;;;;;;;16.08;79.96;98286.81;5102576;28;20062;-82
2023/10/20 03:34:40;;;;;;;1.58;1.48;;;;;;;16.14;80.01;98289.81;5114544;28;20017;-82
2023/10/20 03:37:06;;;;;;;0.60;0.60;;;;;;;16.11;79.95;98290.06;5092727;28;20036;-84
2023/10/20 03:39:33;;;;;;;3.35;1.20;;;;;;;16.15;79.91;98293.34;5097170;28;20035;-83
2023/10/20 03:41:59;;;;;;;1.05;1.05;;;;;;;16.11;79.76;98298.09;5091663;28;20024;-82
2023/10/20 03:44:25;;;;;;;2.20;2.10;;;;;;;16.05;79.91;98308.41;5091818;28;20040;-83
2023/10/20 03:46:56;;;;;;;1.25;0.85;;;;;;;16.09;79.95;98316.06;5097197;28;20042;-83
2023/10/20 03:49:23;;;;;;;1.30;1.27;;;;;;;16.08;79.92;98309.00;5093893;28;20042;-83
2023/10/20 03:51:49;;;;;;;4.25;0.98;;;;;;;16.06;79.67;98299.44;5083374;28;20032;-83
2023/10/20 03:54:17;;;;;;;0.85;0.85;;;;;;;16.05;79.73;98282.56;5091449;28;20032;-83
2023/10/20 03:56:44;;;;;;;3.95;1.77;;;;;;;16.00;79.82;98268.75;5092152;28;20040;-82
2023/10/20 03:59:11;;;;;;;0.30;0.30;;;;;;;15.98;79.73;98268.88;5090958;28;20052;-83
2023/10/20 04:01:38;;;;;;;1.13;1.13;;;;;;;15.97;79.66;98277.03;5087493;28;20024;-82
2023/10/20 04:04:09;;;;;;;1.20;1.02;;;;;;;15.90;79.34;98273.16;5093184;28;20032;-83
2023/10/20 04:06:36;;;;;;;0.40;0.40;;;;;;;15.79;79.24;98266.88;5087341;28;20031;-82
2023/10/20 04:09:09;;;;;;;2.80;2.40;;;;;;;15.81;79.50;98264.06;5084806;28;20491;-83
2023/10/20 04:11:35;;;;;;;0.75;0.75;;;;;;;15.80;79.22;98260.56;5090190;28;20023;-83
2023/10/20 04:14:05;;;;;;;0.30;0.25;;;;;;;15.82;79.53;98249.78;5084117;28;20102;-82
2023/10/20 04:16:39;;;;;;;0.95;0.95;;;;;;;15.79;79.51;98240.16;5087843;28;20477;-83
2023/10/20 04:19:07;;;;;;;0.30;0.30;;;;;;;15.76;79.04;98232.41;5083171;28;20525;-83
2023/10/20 04:21:35;;;;;;;0.68;0.68;;;;;;;15.72;79.15;98220.28;5090451;28;20111;-83
2023/10/20 04:24:01;;;;;;;1.80;0.50;;;;;;;15.71;78.99;98204.41;5091756;28;20449;-84
2023/10/20 04:26:31;;;;;;;1.05;1.05;;;;;;;15.67;79.01;98212.66;5083304;28;20033;-82
2023/10/20 04:54:10;;;;;;;0.20;0.20;;;;;;;15.41;79.07;98197.97;5046670;28;20501;-83
2023/10/20 04:56:39;;;;;;;0.17;0.17;;;;;;;15.41;78.74;98198.81;5055434;28;20107;-84
2023/10/20 04:59:09;;;;;;;0.98;0.65;;;;;;;15.42;78.77;98194.34;5062612;28;20016;-84
2023/10/20 05:01:41;;;;;;;0.47;0.47;;;;;;;15.40;78.85;98190.94;5062024;28;20384;-83
2023/10/20 05:04:15;;;;;;;0.90;0.65;;;;;;;15.34;79.01;98178.97;5060474;28;20029;-84
2023/10/20 05:06:43;;;;;;;0.63;0.63;;;;;;;15.32;78.92;98173.75;5063779;28;20016;-84
2023/10/20 05:09:13;;;;;;;1.90;1.75;;;;;;;15.27;78.68;98170.63;5054203;28;20044;-84
2023/10/20 05:11:40;;;;;;;0.70;0.70;;;;;;;15.28;78.80;98166.13;5058521;28;20089;-84
2023/10/20 05:14:06;;;;;;;2.67;1.02;;;;;;;15.28;78.62;98160.81;5054521;28;20408;-84
2023/10/20 05:16:34;;;;;;;0.40;0.40;;;;;;;15.19;78.82;98157.91;5061187;28;20021;-84
2023/10/20 05:19:03;;;;;;;0.75;0.75;;;;;;;15.23;78.60;98149.66;5066200;28;20114;-83
2023/10/20 05:21:33;;;;;;;0.60;0.60;;;;;;;15.19;78.35;98152.56;5047194;28;20079;-84
2023/10/20 05:24:01;;;;;;;2.17;2.08;;;;;;;15.04;79.04;98138.69;5055219;28;20484;-84
2023/10/20 05:26:30;;;;;;;0.13;0.13;;;;;;;15.16;78.63;98130.66;5051847;28;20088;-84
2023/10/20 05:28:56;;;;;;;0.90;0.90;;;;;;;15.11;78.35;98127.50;5055461;28;20068;-83
2023/10/20 05:31:25;;;;;;;0.75;0.75;;;;;;;15.07;78.44;98126.91;5053071;28;20061;-83
2023/10/20 05:33:52;;;;;;;11.27;1.05;;;;;;;14.99;78.42;98124.03;5055080;28;20095;-84
2023/10/20 05:36:18;;;;;;;0.30;0.30;;;;;;;14.91;78.04;98131.81;5049405;28;20060;-84
2023/10/20 05:38:44;;;;;;;0.73;0.73;;;;;;;14.95;78.37;98138.59;5057538;28;20033;-84
2023/10/20 05:41:11;;;;;;;0.60;0.60;;;;;;;14.88;78.15;98130.25;5059780;28;20124;-85
2023/10/20 05:43:38;;;;;;;0.95;0.95;;;;;;;14.87;78.68;98142.72;5056741;28;20028;-84
2023/10/20 05:46:04;;;;;;;0.20;0.20;;;;;;;14.82;78.11;98144.91;5057301;28;20037;-84
2023/10/20 05:48:31;;;;;;;0.32;0.32;;;;;;;14.80;78.19;98140.69;5055804;28;20528;-84
2023/10/20 05:50:58;;;;;;;1.88;1.17;;;;;;;14.78;78.13;98131.94;5062559;28;20522;-84
2023/10/20 05:53:25;;;;;;;1.95;1.85;;;;;;;14.71;78.07;98131.59;5055496;28;20041;-84
2023/10/20 05:55:51;;;;;;;5.38;2.17;;;;;;;14.69;78.24;98118.41;5060329;28;20107;-83
2023/10/20 05:58:17;;;;;;;0.10;0.10;;;;;;;14.68;78.23;98123.88;5058854;28;20032;-83
2023/10/20 06:00:43;;;;;;;0.28;0.28;;;;;;;14.66;78.18;98123.97;5045069;28;20518;-84
2023/10/20 06:03:09;;;;;;;1.08;1.08;;;;;;;14.65;78.18;98121.44;5048293;28;20012;-83
2023/10/20 06:05:36;;;;;;;1.15;1.05;;;;;;;14.60;78.46;98115.59;5060100;28;20029;-83
2023/10/20 06:08:02;;;;;;;0.82;0.82;;;;;;;14.54;78.22;98124.94;5048183;28;20091;-83
2023/10/20 06:10:29;;;;;;;0.10;0.10;;;;;;;14.53;78.15;98118.75;5054073;28;20035;-84
2023/10/20 06:12:55;;;;;;;0.65;0.65;;;;;;;14.49;78.32;98117.31;5044817;28;20512;-85
2023/10/20 06:15:22;;;;;;;0.73;0.73;;;;;;;14.46;78.33;98120.22;5050641;28;20044;-83
2023/10/20 06:17:49;;;;;;;0.30;0.30;;;;;;;14.45;78.38;98115.00;5052620;28;20029;-84
2023/10/20 06:20:16;;;;;;;0.25;0.25;;;;;;;14.42;78.43;98116.13;5052415;28;20515;-84
2023/10/20 06:22:42;;;;;;;0.35;0.35;;;;;;;14.38;78.43;98125.28;5051241;28;20080;-86
2023/10/20 06:25:12;;;;;;;0.90;0.77;;;;;;;14.38;78.49;98126.16;5043832;28;20545;-84
2023/10/20 06:27:39;;;;;;;0.40;0.40;;;;;;;14.39;78.55;98127.00;5043496;28;20041;-83
2023/10/20 06:30:14;;;;;;;0.10;0.10;;;;;;;14.38;78.74;98128.81;5046279;28;20025;-83
2023/10/20 06:32:42;;;;;;;0.45;0.45;;;;;;;14.28;78.45;98125.19;5049909;28;20029;-81
2023/10/20 06:35:12;;;;;;;0.30;0.30;;;;;;;14.30;78.50;98117.09;5042837;28;20037;-83
2023/10/20 06:37:46;;;;;;;0.85;0.85;;;;;;;14.24;78.61;98108.63;5043764;28;20024;-81
2023/10/20 06:40:16;;;;;;;1.05;1.05;;;;;;;14.24;78.66;98111.28;5027175;28;20074;-82
2023/10/20 06:42:43;;;;;;;0.30;0.30;;;;;;;14.27;78.78;98093.34;5036482;28;20033;-83
2023/10/20 06:45:10;;;;;;;0.38;0.38;;;;;;;14.24;79.12;98097.09;5034938;28;20025;-82
2023/10/20 06:47:39;;;;;;;0.10;0.10;;;;;;;14.24;78.90;98100.63;5048323;28;20118;-83
2023/10/20 06:50:06;;;;;;;0.73;0.73;;;;;;;14.20;78.88;98100.97;5053232;28;20068;-82
2023/10/20 06:52:35;;;;;;;0.10;0.10;;;;;;;14.19;78.83;98097.47;5053609;28;20051;-82
2023/10/20 06:55:03;;;;;;;0.10;0.10;;;;;;;14.18;78.90;98102.91;5021868;28;20036;-85
2023/10/20 06:57:30;;;;;;;0.73;0.73;;;;;;;14.20;78.81;98104.47;5035742;28;20423;-83
2023/10/20 06:59:56;;;;;;;0.98;0.88;;;;;;;14.21;78.94;98105.34;5039446;28;20025;-83
2023/10/20 07:02:22;;;;;;;0.65;0.32;;;;;;;14.17;78.96;98102.06;5037139;28;20029;-82
2023/10/20 07:04:49;;;;;;;0.85;0.40;;;;;;;14.14;79.15;98101.47;5047765;28;20112;-83
2023/10/20 07:07:17;;;;;;;0.20;0.20;;;;;;;14.09;78.91;98099.16;5047551;28;20555;-82
2023/10/20 07:09:45;;;;;;;2.20;2.08;;;;;;;14.10;79.01;98106.19;5047339;28;20083;-83
2023/10/20 07:12:14;;;;;;;0.10;0.10;;;;;;;14.11;79.18;98102.56;5049926;28;20033;-82
2023/10/20 07:14:42;;;;;;;0.17;0.17;;;;;;;14.01;79.17;98093.59;5045432;28;20128;-82
2023/10/20 07:17:08;;;;;;;0.10;0.10;;;;;;;14.07;79.26;98096.63;5043089;28;20053;-82
2023/10/20 07:19:37;;;;;;;0.25;0.25;;;;;;;14.10;79.00;98095.53;5051555;28;20028;-82
2023/10/20 07:22:03;;;;;;;0.68;0.68;;;;;;;14.09;79.26;98093.84;5041449;28;20024;-82
2023/10/20 07:24:31;;;;;;;0.10;0.10;;;;;;;14.09;79.33;98096.50;5034354;28;20030;-82
2023/10/20 07:26:58;;;;;;;0.60;0.60;;;;;;;14.05;79.09;98098.53;5041160;28;20412;-82
2023/10/20 07:29:24;;;;;;;0.20;0.20;;;;;;;14.07;79.30;98090.47;5041864;28;20029;-81
2023/10/20 07:31:51;;;;;;;0.13;0.13;;;;;;;14.06;79.23;98084.28;5036464;28;20082;-81
2023/10/20 07:34:17;;;;;;;1.10;1.10;;;;;;;14.06;79.08;98083.44;5048364;28;20028;-81
2023/10/20 07:36:45;;;;;;;0.30;0.30;;;;;;;14.03;79.32;98083.66;5044341;28;20036;-82
2023/10/20 07:39:16;;;;;;;1.98;1.45;;;;;;;14.00;79.09;98083.91;5043327;28;20041;-80
2023/10/20 07:41:44;;;;;;;0.45;0.45;;;;;;;14.02;79.32;98092.63;5043141;28;20038;-81
2023/10/20 07:44:12;;;;;;;0.60;0.60;;;;;;;14.05;79.17;98084.41;5047131;28;20025;-83
2023/10/20 07:46:41;;;;;;;0.20;0.20;;;;;;;14.05;79.17;98092.38;5048634;28;20033;-82
2023/10/20 07:49:11;;;;;;;0.17;0.17;;;;;;;14.02;79.25;98089.97;5045932;28;20397;-82
2023/10/20 07:51:38;;;;;;;0.55;0.55;;;;;;;14.05;79.09;98093.22;5044075;28;20029;-80
2023/10/20 07:54:04;;;;;;;0.15;0.15;;;;;;;13.98;79.18;98067.22;5045586;28;20108;-80
2023/10/20 07:56:30;;;;;;;0.10;0.10;;;;;;;13.94;78.96;98065.75;5047483;28;20049;-81
2023/10/20 07:58:57;;;;;;;0.10;0.10;;;;;;;13.83;79.25;98069.25;5055267;28;20032;-83
2023/10/20 08:01:23;;;;;;;0.40;0.40;;;;;;;13.80;79.03;98067.69;5054852;28;20419;-80
2023/10/20 08:03:49;;;;;;;0.77;0.77;;;;;;;13.83;78.92;98063.94;5052330;28;20036;-83
2023/10/20 08:06:16;;;;;;;0.45;0.45;;;;;;;13.80;79.20;98057.03;5052314;28;20029;-82
2023/10/20 08:08:42;;;;;;;1.38;0.55;;;;;;;13.78;79.05;98052.81;5048284;28;20037;-83
2023/10/20 08:11:08;;;;;;;0.28;0.28;;;;;;;13.74;78.84;98057.53;5035351;28;20569;-84
2023/10/20 08:13:34;;;;;;;0.10;0.10;;;;;;;13.72;78.97;98044.34;5039421;28;20032;-84
2023/10/20 08:16:03;;;;;;;0.10;0.10;;;;;;;13.69;79.07;98027.75;5039742;28;20033;-83
2023/10/20 08:18:33;;;;;;;1.48;1.38;;;;;;;13.74;79.02;98025.59;5037578;28;20507;-83
2023/10/20 08:21:05;;;;;;;0.30;0.30;;;;;;;13.71;79.25;98033.81;5036112;28;20037;-83
2023/10/20 08:23:32;;;;;;;0.95;0.95;;;;;;;13.67;79.07;98037.66;5051623;28;20033;-83
2023/10/20 08:25:58;;;;;;;2.28;0.65;;;;;;;13.66;79.24;98051.97;5052390;28;20056;-83
2023/10/20 08:28:25;;;;;;;0.10;0.10;;;;;;;13.61;79.07;98057.63;5037934;28;20083;-83
2023/10/20 08:30:51;;;;;;;4.03;1.25;;;;;;;13.64;79.21;98046.75;5039075;28;20060;-81
2023/10/20 08:33:17;;;;;;;0.10;0.10;;;;;;;13.59;79.13;98031.16;5048454;28;20028;-81
2023/10/20 08:35:43;;;;;;;1.27;0.65;;;;;;;13.64;79.10;98036.09;5069504;28;20023;-81
2023/10/20 08:38:09;;;;;;;0.10;0.10;;;;;;;13.59;79.21;98023.16;5057104;28;20036;-82
2023/10/20 08:40:36;;;;;;;0.10;0.10;;;;;;;13.63;78.98;98031.72;5047291;28;20121;-81
2023/10/20 08:43:04;;;;;;;0.20;0.20;;;;;;;13.62;79.37;98023.88;5044004;28;20041;-84
2023/10/20 08:45:32;;;;;;;0.10;0.10;;;;;;;13.57;79.39;98032.22;5045667;28;20029;-82
2023/10/20 08:48:01;;;;;;;0.90;0.90;;;;;;;13.57;79.43;98024.22;5037960;28;20116;-83
2023/10/20 08:50:31;;;;;;;0.10;0.10;;;;;;;13.51;78.95;98036.22;5037744;28;20111;-82
2023/10/20 08:53:01;;;;;;;0.52;0.52;;;;;;;13.46;79.22;98038.38;5034029;28;20132;-82
2023/10/20 08:55:27;;;;;;;0.15;0.15;;;;;;;13.41;79.10;98025.44;5048511;28;20112;-81
2023/10/20 08:57:53;;;;;;;0.65;0.65;;;;;;;13.43;79.08;98027.97;5040003;28;20392;-82
2023/10/20 09:00:20;;;;;;;0.10;0.10;;;;;;;13.36;78.93;98026.72;5035273;28;20036;-81
2023/10/20 09:02:47;;;;;;;0.10;0.10;;;;;;;13.35;78.85;98028.53;5035018;28;20060;-81
2023/10/20 09:05:21;;;;;;;0.30;0.30;;;;;;;13.37;79.47;98031.06;5045064;28;20105;-82
2023/10/20 09:07:53;;;;;;;0.40;0.40;;;;;;;13.39;79.26;98021.19;5044150;28;20028;-82
2023/10/20 09:10:20;;;;;;;0.25;0.25;;;;;;;13.31;79.23;98031.53;5045465;28;20100;-81
2023/10/20 09:12:46;;;;;;;0.28;0.28;;;;;;;13.25;79.25;98025.72;5033862;28;20295;-83
2023/10/20 09:15:12;;;;;;;0.10;0.10;;;;;;;13.26;79.12;98031.91;5041310;28;20068;-82
2023/10/20 09:17:38;;;;;;;0.10;0.10;;;;;;;13.18;79.27;98028.97;5064352;28;20032;-82
2023/10/20 09:20:11;;;;;;;0.10;0.10;;;;;;;13.22;78.80;98041.91;5049613;28;20033;-80
2023/10/20 09:22:38;;;;;;;0.10;0.10;;;;;;;13.19;79.26;98038.66;5045586;28;20506;-82
2023/10/20 09:25:09;;;;;;;0.10;0.10;;;;;;;13.22;79.03;98036.59;5038276;28;20045;-80
2023/10/20 09:27:37;;;;;;;0.10;0.10;;;;;;;13.14;79.04;98023.03;5040740;28;20449;-83
2023/10/20 09:30:08;;;;;;;0.57;0.57;;;;;;;13.15;79.21;98022.06;5039801;28;20041;-83
2023/10/20 09:32:35;;;;;;;0.10;0.10;;;;;;;13.17;79.15;98028.13;5046391;28;20029;-82
2023/10/20 09:35:03;;;;;;;0.10;0.10;;;;;;;13.09;79.18;98022.53;5060192;28;20028;-83
2023/10/20 09:37:30;;;;;;;0.10;0.10;;;;;;;13.04;79.43;98020.22;5059042;28;20090;-83
2023/10/20 09:40:06;;;;;;;0.30;0.30;;;;;;;13.07;79.11;98022.66;5056468;28;20447;-83
2023/10/20 09:45:20;;;;;;;0.10;0.10;;;;;;;13.02;79.17;98008.00;5101162;27;20393;-83
2023/10/20 09:47:52;;;;;;;0.20;0.20;;;;;;;12.98;79.39;97995.94;5090651;28;20538;-82
2023/10/20 09:50:20;;;;;;;1.05;1.00;;;;;;;13.00;79.05;98016.09;5095855;28;20032;-83
2023/10/20 09:52:47;;;;;;;0.17;0.17;;;;;;;12.94;79.07;98012.09;5093468;28;20024;-82
2023/10/20 09:55:14;;;;;;;0.10;0.10;;;;;;;12.89;79.38;98006.28;5092616;28;20082;-83
2023/10/20 09:57:40;;;;;;;0.10;0.10;;;;;;;12.92;79.48;98003.41;5094966;28;20029;-83
2023/10/20 10:00:08;;;;;;;0.10;0.10;;;;;;;12.93;79.14;97988.28;5093264;28;20029;-83
2023/10/20 10:02:34;;;;;;;0.10;0.10;;;;;;;12.90;78.89;97988.53;5090730;28;20039;-84
2023/10/20 10:05:00;;;;;;;0.10;0.10;;;;;;;12.83;79.54;97982.81;5094508;28;20020;-84
2023/10/20 10:07:33;;;;;;;0.10;0.10;;;;;;;12.85;79.41;97985.38;5093013;28;20041;-83
2023/10/20 10:09:59;;;;;;;0.20;0.20;;;;;;;12.81;79.11;97982.09;5092719;28;20086;-83
2023/10/20 10:12:28;;;;;;;0.10;0.10;;;;;;;12.81;79.77;97992.75;5085611;28;20074;-82
2023/10/20 10:14:57;;;;;;;0.10;0.10;;;;;;;12.88;79.01;97988.63;5078961;28;20032;-84
2023/10/20 10:17:26;;;;;;;0.10;0.10;;;;;;;12.89;79.75;97993.00;5092920;28;20032;-83
2023/10/20 10:19:54;;;;;;;0.10;0.10;;;;;;;12.95;79.58;97981.06;5093303;28;20115;-84
2023/10/20 10:22:26;;;;;;;0.10;0.10;;;;;;;12.97;79.71;97991.56;5093235;28;20063;-83
2023/10/20 10:24:54;;;;;;;0.10;0.10;;;;;;;12.95;79.41;97992.53;5093322;28;20024;-83
2023/10/20 10:27:22;;;;;;;0.40;0.40;;;;;;;13.00;79.51;97992.19;5090994;28;20037;-83
2023/10/20 10:29:53;;;;;;;0.10;0.10;;;;;;;12.95;79.42;97984.56;5092927;28;20035;-83
2023/10/20 10:32:21;;;;;;;0.10;0.10;;;;;;;12.99;79.56;97987.00;5092707;28;20034;-83
2023/10/20 10:34:49;;;;;;;0.10;0.10;;;;;;;12.94;79.25;97980.19;5093000;28;20024;-83
2023/10/20 10:37:28;;;;;;;0.10;0.10;;;;;;;12.93;78.96;97980.31;5092561;28;20078;-82
2023/10/20 10:40:04;;;;;;;0.10;0.10;;;;;;;12.86;78.71;97974.63;5087539;28;20056;-83
2023/10/20 10:42:30;;;;;;;0.10;0.10;;;;;;;12.83;79.15;97968.69;5084399;28;20147;-83
2023/10/20 10:44:56;;;;;;;0.10;0.10;;;;;;;12.74;79.19;97959.63;5088476;28;20024;-82
2023/10/20 10:47:23;;;;;;;0.10;0.10;;;;;;;12.77;79.19;97959.38;5094010;28;20387;-83
2023/10/20 10:49:50;;;;;;;0.20;0.20;;;;;;;12.71;79.46;97959.84;5097836;28;20039;-83
2023/10/20 10:52:16;;;;;;;0.10;0.10;;;;;;;12.74;79.42;97947.16;5107479;28;20100;-83
2023/10/20 10:54:43;;;;;;;0.10;0.10;;;;;;;12.75;79.57;97950.69;5092945;28;20043;-80
2023/10/20 10:57:09;;;;;;;0.10;0.10;;;;;;;12.74;79.46;97941.03;5073495;28;20094;-81
2023/10/20 10:59:36;;;;;;;0.20;0.20;;;;;;;12.77;79.56;97924.84;5077151;28;20498;-81
2023/10/20 11:02:05;;;;;;;0.10;0.10;;;;;;;12.73;79.20;97921.56;5074976;28;20033;-82
2023/10/20 11:04:31;;;;;;;0.10;0.10;;;;;;;12.77;79.15;97914.22;5077714;28;20042;-80
2023/10/20 11:06:57;;;;;;;0.20;0.20;;;;;;;12.77;79.39;97914.22;5091970;28;20028;-80
2023/10/20 11:09:28;;;;;;;0.10;0.10;;;;;;;12.71;79.32;97914.66;5076935;28;20024;-83
2023/10/20 11:11:56;;;;;;;0.10;0.10;;;;;;;12.75;79.09;97926.78;5081045;28;20024;-83
2023/10/20 11:14:23;;;;;;;0.10;0.10;;;;;;;12.78;79.22;97918.56;5088414;28;20491;-82
2023/10/20 11:16:50;;;;;;;0.20;0.20;;;;;;;12.74;78.80;97912.63;5080718;28;20027;-83
2023/10/20 11:19:17;;;;;;;0.10;0.10;;;;;;;12.70;79.53;97908.53;5085771;28;20036;-82
2023/10/20 11:21:46;;;;;;;0.10;0.10;;;;;;;12.77;79.58;97899.13;5085469;28;20029;-83
2023/10/20 11:24:23;;;;;;;0.10;0.10;;;;;;;12.79;79.21;97891.03;5082368;28;20039;-83
2023/10/20 11:27:05;;;;;;;0.10;0.10;;;;;;;12.87;79.36;97886.00;5083466;28;20031;-83
2023/10/20 11:29:32;;;;;;;0.20;0.20;;;;;;;12.83;79.49;97883.69;5078151;28;20388;-83
2023/10/20 11:32:05;;;;;;;0.10;0.10;;;;;;;12.87;79.40;97883.34;5077484;28;20694;-81
2023/10/20 11:34:32;;;;;;;0.10;0.10;;;;;;;12.86;79.38;97876.31;5083670;28;20028;-80
2023/10/20 11:36:59;;;;;;;0.10;0.10;;;;;;;12.90;79.27;97875.09;5082474;28;20030;-82
2023/10/20 11:39:27;;;;;;;0.17;0.17;;;;;;;12.90;79.16;97877.78;5079294;28;20020;-83
2023/10/20 11:41:53;;;;;;;0.15;0.15;;;;;;;12.91;79.34;97868.84;5087816;28;20027;-82
2023/10/20 11:44:22;;;;;;;0.10;0.10;;;;;;;12.94;79.10;97868.59;5077933;28;20048;-83
2023/10/20 11:46:48;;;;;;;0.20;0.20;;;;;;;12.96;79.33;97876.47;5080235;28;20063;-83
2023/10/20 11:49:14;;;;;;;0.10;0.10;;;;;;;12.92;79.08;97870.53;5078012;28;20036;-83
2023/10/20 11:51:40;;;;;;;0.10;0.10;;;;;;;12.93;79.18;97864.25;5074089;28;20376;-83
2023/10/20 11:54:06;;;;;;;0.10;0.10;;;;;;;13.02;79.26;97864.50;5072725;28;20153;-83
2023/10/20 11:56:33;;;;;;;0.10;0.10;;;;;;;13.05;79.24;97866.94;5077118;28;20055;-83
2023/10/20 11:58:59;;;;;;;0.20;0.20;;;;;;;13.04;79.47;97857.25;5074927;28;20032;-82
2023/10/20 12:01:25;;;;;;;21.20;1.75;;;;;;;12.95;78.92;97858.81;5078278;28;20078;-81
2023/10/20 12:03:51;;;;;;;0.10;0.10;;;;;;;12.99;79.33;97848.81;5077003;28;20024;-83